sensor_id;sensor_type;location;lat;lon;timestamp;pressure;altitude;pressure_sealevel;temperature;humidity
55801;BME280;41730;51.960;20.158;2023-04-01T00:00:02;98256.96;;;10.47;82.87
55801;BME280;41730;51.960;20.158;2023-04-01T00:02:31;98247.98;;;10.33;83.52
55801;BME280;41730;51.960;20.158;2023-04-01T00:05:01;98250.56;;;10.46;83.24
55801;BME280;41730;51.960;20.158;2023-04-01T00:07:30;98246.10;;;10.56;82.75
55801;BME280;41730;51.960;20.158;2023-04-01T00:09:59;98240.39;;;10.63;82.60
55801;BME280;41730;51.960;20.158;2023-04-01T00:12:28;98239.58;;;10.66;82.35
55801;BME280;41730;51.960;20.158;2023-04-01T00:14:58;98241.73;;;10.61;82.32
55801;BME280;41730;51.960;20.158;2023-04-01T00:17:27;98241.15;;;10.57;82.57
55801;BME280;41730;51.960;20.158;2023-04-01T00:19:57;98245.24;;;10.45;82.95
55801;BME280;41730;51.960;20.158;2023-04-01T00:22:26;98241.05;;;10.43;83.05
55801;BME280;41730;51.960;20.158;2023-04-01T00:24:55;98244.58;;;10.41;82.97
55801;BME280;41730;51.960;20.158;2023-04-01T00:27:24;98245.24;;;10.36;83.30
55801;BME280;41730;51.960;20.158;2023-04-01T00:29:53;98245.70;;;10.48;82.85
55801;BME280;41730;51.960;20.158;2023-04-01T00:32:22;98243.30;;;10.47;82.73
55801;BME280;41730;51.960;20.158;2023-04-01T00:34:52;98247.44;;;10.39;82.82
55801;BME280;41730;51.960;20.158;2023-04-01T00:37:21;98240.44;;;10.32;83.17
55801;BME280;41730;51.960;20.158;2023-04-01T00:39:50;98238.27;;;10.29;83.43
55801;BME280;41730;51.960;20.158;2023-04-01T00:42:20;98239.31;;;10.33;83.26
55801;BME280;41730;51.960;20.158;2023-04-01T00:44:51;98237.94;;;10.29;83.19
55801;BME280;41730;51.960;20.158;2023-04-01T00:47:21;98240.06;;;10.16;83.76
55801;BME280;41730;51.960;20.158;2023-04-01T00:49:51;98238.96;;;10.12;84.01
55801;BME280;41730;51.960;20.158;2023-04-01T00:52:25;98241.70;;;10.17;83.92
55801;BME280;41730;51.960;20.158;2023-04-01T00:54:57;98241.70;;;10.22;83.74
55801;BME280;41730;51.960;20.158;2023-04-01T00:57:32;98238.96;;;10.23;83.55
55801;BME280;41730;51.960;20.158;2023-04-01T01:00:06;98237.92;;;10.17;83.71
55801;BME280;41730;51.960;20.158;2023-04-01T01:02:38;98239.96;;;10.25;83.59
55801;BME280;41730;51.960;20.158;2023-04-01T01:05:12;98241.02;;;10.42;82.83
55801;BME280;41730;51.960;20.158;2023-04-01T01:07:47;98247.02;;;10.34;82.85
55801;BME280;41730;51.960;20.158;2023-04-01T01:10:25;98245.70;;;10.39;82.97
55801;BME280;41730;51.960;20.158;2023-04-01T01:13:04;98242.55;;;10.48;82.44
55801;BME280;41730;51.960;20.158;2023-04-01T01:15:37;98238.47;;;10.57;82.03
55801;BME280;41730;51.960;20.158;2023-04-01T01:18:15;98236.08;;;10.55;82.08
55801;BME280;41730;51.960;20.158;2023-04-01T01:21:28;98226.52;;;10.43;82.33
55801;BME280;41730;51.960;20.158;2023-04-01T01:24:12;98224.66;;;10.40;82.66
55801;BME280;41730;51.960;20.158;2023-04-01T01:26:52;98222.02;;;10.41;82.50
55801;BME280;41730;51.960;20.158;2023-04-01T01:32:22;98214.16;;;10.30;83.00
55801;BME280;41730;51.960;20.158;2023-04-01T01:34:55;98210.65;;;10.29;83.15
55801;BME280;41730;51.960;20.158;2023-04-01T01:37:28;98212.89;;;10.42;82.89
55801;BME280;41730;51.960;20.158;2023-04-01T01:40:01;98215.58;;;10.47;82.41
55801;BME280;41730;51.960;20.158;2023-04-01T01:42:32;98214.23;;;10.42;82.48
55801;BME280;41730;51.960;20.158;2023-04-01T01:45:06;98205.50;;;10.31;82.65
55801;BME280;41730;51.960;20.158;2023-04-01T01:47:36;98207.23;;;10.23;82.99
55801;BME280;41730;51.960;20.158;2023-04-01T01:50:09;98206.80;;;10.30;82.71
55801;BME280;41730;51.960;20.158;2023-04-01T01:52:38;98209.84;;;10.30;82.67
55801;BME280;41730;51.960;20.158;2023-04-01T01:55:26;98205.27;;;10.27;82.54
55801;BME280;41730;51.960;20.158;2023-04-01T01:57:58;98205.69;;;10.21;82.59
55801;BME280;41730;51.960;20.158;2023-04-01T02:00:28;98211.13;;;10.23;82.31
55801;BME280;41730;51.960;20.158;2023-04-01T02:02:58;98217.20;;;10.14;82.33
55801;BME280;41730;51.960;20.158;2023-04-01T02:05:28;98217.77;;;10.05;82.66
55801;BME280;41730;51.960;20.158;2023-04-01T02:08:02;98212.89;;;9.99;82.76
55801;BME280;41730;51.960;20.158;2023-04-01T02:10:37;98219.74;;;10.04;82.46
55801;BME280;41730;51.960;20.158;2023-04-01T02:13:13;98219.91;;;9.96;82.61
55801;BME280;41730;51.960;20.158;2023-04-01T02:15:47;98216.97;;;9.85;82.98
55801;BME280;41730;51.960;20.158;2023-04-01T02:18:17;98221.01;;;9.75;83.40
55801;BME280;41730;51.960;20.158;2023-04-01T02:20:48;98225.85;;;9.80;83.17
55801;BME280;41730;51.960;20.158;2023-04-01T02:23:18;98220.65;;;9.85;83.01
55801;BME280;41730;51.960;20.158;2023-04-01T02:25:47;98222.79;;;9.81;83.06
55801;BME280;41730;51.960;20.158;2023-04-01T02:28:18;98221.17;;;9.75;83.11
55801;BME280;41730;51.960;20.158;2023-04-01T02:30:48;98219.55;;;9.71;83.50
55801;BME280;41730;51.960;20.158;2023-04-01T02:33:21;98220.98;;;9.91;82.85
55801;BME280;41730;51.960;20.158;2023-04-01T02:35:50;98218.17;;;9.96;82.48
55801;BME280;41730;51.960;20.158;2023-04-01T02:38:19;98217.58;;;9.98;82.51
55801;BME280;41730;51.960;20.158;2023-04-01T02:40:50;98218.72;;;10.04;82.28
55801;BME280;41730;51.960;20.158;2023-04-01T02:43:20;98220.17;;;9.95;82.50
55801;BME280;41730;51.960;20.158;2023-04-01T02:45:52;98222.48;;;10.01;82.40
55801;BME280;41730;51.960;20.158;2023-04-01T02:48:21;98222.65;;;9.93;82.68
55801;BME280;41730;51.960;20.158;2023-04-01T02:50:50;98224.38;;;9.89;82.96
55801;BME280;41730;51.960;20.158;2023-04-01T02:53:19;98220.91;;;9.90;82.88
55801;BME280;41730;51.960;20.158;2023-04-01T02:55:48;98225.34;;;9.91;82.85
55801;BME280;41730;51.960;20.158;2023-04-01T02:58:18;98226.02;;;9.88;82.79
55801;BME280;41730;51.960;20.158;2023-04-01T03:00:47;98225.40;;;9.86;82.69
55801;BME280;41730;51.960;20.158;2023-04-01T03:03:17;98230.10;;;9.79;83.10
55801;BME280;41730;51.960;20.158;2023-04-01T03:05:45;98233.64;;;9.86;83.02
55801;BME280;41730;51.960;20.158;2023-04-01T03:08:14;98234.46;;;9.88;82.91
55801;BME280;41730;51.960;20.158;2023-04-01T03:10:43;98232.25;;;10.00;82.59
55801;BME280;41730;51.960;20.158;2023-04-01T03:13:12;98234.33;;;9.94;82.65
55801;BME280;41730;51.960;20.158;2023-04-01T03:15:41;98237.52;;;10.06;82.45
55801;BME280;41730;51.960;20.158;2023-04-01T03:18:10;98235.38;;;9.94;82.46
55801;BME280;41730;51.960;20.158;2023-04-01T03:20:39;98238.86;;;9.86;83.09
55801;BME280;41730;51.960;20.158;2023-04-01T03:23:09;98240.91;;;9.92;82.80
55801;BME280;41730;51.960;20.158;2023-04-01T03:25:38;98241.23;;;9.78;83.39
55801;BME280;41730;51.960;20.158;2023-04-01T03:28:09;98240.16;;;9.75;83.53
55801;BME280;41730;51.960;20.158;2023-04-01T03:30:40;98238.77;;;9.88;83.38
55801;BME280;41730;51.960;20.158;2023-04-01T03:33:13;98240.92;;;9.93;82.83
55801;BME280;41730;51.960;20.158;2023-04-01T03:35:52;98238.58;;;9.89;83.12
55801;BME280;41730;51.960;20.158;2023-04-01T03:38:30;98237.45;;;10.03;82.58
55801;BME280;41730;51.960;20.158;2023-04-01T03:40:59;98243.36;;;10.03;82.28
55801;BME280;41730;51.960;20.158;2023-04-01T03:43:29;98244.00;;;9.89;83.01
55801;BME280;41730;51.960;20.158;2023-04-01T03:45:58;98246.33;;;9.84;83.30
55801;BME280;41730;51.960;20.158;2023-04-01T03:48:27;98249.94;;;9.79;83.26
55801;BME280;41730;51.960;20.158;2023-04-01T03:50:57;98252.87;;;9.75;83.49
55801;BME280;41730;51.960;20.158;2023-04-01T03:53:27;98255.07;;;9.87;83.18
55801;BME280;41730;51.960;20.158;2023-04-01T03:55:57;98260.56;;;9.93;82.69
55801;BME280;41730;51.960;20.158;2023-04-01T03:58:27;98257.86;;;9.87;83.03
55801;BME280;41730;51.960;20.158;2023-04-01T04:00:56;98256.27;;;9.87;83.02
55801;BME280;41730;51.960;20.158;2023-04-01T04:03:26;98259.70;;;9.91;82.82
55801;BME280;41730;51.960;20.158;2023-04-01T04:05:56;98263.71;;;9.94;82.64
55801;BME280;41730;51.960;20.158;2023-04-01T04:08:25;98267.48;;;9.82;82.97
55801;BME280;41730;51.960;20.158;2023-04-01T04:10:56;98268.19;;;9.71;83.34
55801;BME280;41730;51.960;20.158;2023-04-01T04:13:27;98271.92;;;9.59;83.62
55801;BME280;41730;51.960;20.158;2023-04-01T04:15:57;98275.00;;;9.55;84.00
55801;BME280;41730;51.960;20.158;2023-04-01T04:18:27;98271.64;;;9.57;84.04
55801;BME280;41730;51.960;20.158;2023-04-01T04:20:56;98274.85;;;9.53;84.01
55801;BME280;41730;51.960;20.158;2023-04-01T04:23:26;98270.91;;;9.43;84.14
55801;BME280;41730;51.960;20.158;2023-04-01T04:25:58;98276.78;;;9.40;84.20
55801;BME280;41730;51.960;20.158;2023-04-01T04:28:28;98274.52;;;9.35;84.46
55801;BME280;41730;51.960;20.158;2023-04-01T04:30:58;98283.55;;;9.33;84.68
55801;BME280;41730;51.960;20.158;2023-04-01T04:33:27;98284.33;;;9.35;84.65
55801;BME280;41730;51.960;20.158;2023-04-01T04:35:58;98285.29;;;9.44;84.40
55801;BME280;41730;51.960;20.158;2023-04-01T04:38:27;98282.50;;;9.51;84.67
55801;BME280;41730;51.960;20.158;2023-04-01T04:40:57;98282.35;;;9.60;84.33
55801;BME280;41730;51.960;20.158;2023-04-01T04:43:26;98282.19;;;9.62;84.11
55801;BME280;41730;51.960;20.158;2023-04-01T04:45:57;98279.02;;;9.68;84.26
55801;BME280;41730;51.960;20.158;2023-04-01T04:48:26;98277.34;;;9.69;84.29
55801;BME280;41730;51.960;20.158;2023-04-01T04:50:55;98279.67;;;9.67;84.35
55801;BME280;41730;51.960;20.158;2023-04-01T04:53:24;98274.96;;;9.67;84.40
55801;BME280;41730;51.960;20.158;2023-04-01T04:55:54;98279.21;;;9.66;84.35
55801;BME280;41730;51.960;20.158;2023-04-01T04:58:23;98285.23;;;9.61;84.39
55801;BME280;41730;51.960;20.158;2023-04-01T05:00:52;98284.46;;;9.53;84.81
55801;BME280;41730;51.960;20.158;2023-04-01T05:03:21;98287.98;;;9.50;84.89
55801;BME280;41730;51.960;20.158;2023-04-01T05:05:53;98283.60;;;9.47;85.15
55801;BME280;41730;51.960;20.158;2023-04-01T05:08:22;98285.30;;;9.44;85.22
55801;BME280;41730;51.960;20.158;2023-04-01T05:10:52;98286.91;;;9.45;85.21
55801;BME280;41730;51.960;20.158;2023-04-01T05:13:21;98282.90;;;9.50;85.37
55801;BME280;41730;51.960;20.158;2023-04-01T05:15:51;98284.05;;;9.66;84.91
55801;BME280;41730;51.960;20.158;2023-04-01T05:18:20;98280.12;;;9.82;84.39
55801;BME280;41730;51.960;20.158;2023-04-01T05:20:51;98277.20;;;9.86;84.34
55801;BME280;41730;51.960;20.158;2023-04-01T05:23:21;98275.98;;;9.92;84.09
55801;BME280;41730;51.960;20.158;2023-04-01T05:25:51;98278.73;;;9.98;84.15
55801;BME280;41730;51.960;20.158;2023-04-01T05:28:21;98278.29;;;9.94;84.37
55801;BME280;41730;51.960;20.158;2023-04-01T05:30:50;98281.66;;;9.99;84.47
55801;BME280;41730;51.960;20.158;2023-04-01T05:33:20;98284.67;;;10.06;84.49
55801;BME280;41730;51.960;20.158;2023-04-01T05:35:49;98282.17;;;10.09;84.41
55801;BME280;41730;51.960;20.158;2023-04-01T05:38:18;98286.55;;;9.99;84.49
55801;BME280;41730;51.960;20.158;2023-04-01T05:40:48;98285.38;;;9.96;84.75
55801;BME280;41730;51.960;20.158;2023-04-01T05:43:18;98284.94;;;9.94;84.99
55801;BME280;41730;51.960;20.158;2023-04-01T05:45:49;98281.73;;;9.91;85.21
55801;BME280;41730;51.960;20.158;2023-04-01T05:48:19;98283.91;;;10.05;84.93
55801;BME280;41730;51.960;20.158;2023-04-01T05:50:49;98278.70;;;10.19;84.46
55801;BME280;41730;51.960;20.158;2023-04-01T05:53:18;98285.52;;;10.23;84.26
55801;BME280;41730;51.960;20.158;2023-04-01T05:55:48;98285.46;;;10.19;84.53
55801;BME280;41730;51.960;20.158;2023-04-01T05:58:18;98291.56;;;10.19;84.62
55801;BME280;41730;51.960;20.158;2023-04-01T06:00:48;98288.66;;;10.34;84.24
55801;BME280;41730;51.960;20.158;2023-04-01T06:03:35;98289.20;;;10.46;83.53
55801;BME280;41730;51.960;20.158;2023-04-01T06:06:09;98289.59;;;10.40;83.69
55801;BME280;41730;51.960;20.158;2023-04-01T06:08:41;98285.70;;;10.38;83.98
55801;BME280;41730;51.960;20.158;2023-04-01T06:11:19;98288.69;;;10.42;83.87
55801;BME280;41730;51.960;20.158;2023-04-01T06:14:07;98288.90;;;10.51;83.79
55801;BME280;41730;51.960;20.158;2023-04-01T06:16:48;98295.34;;;10.58;83.44
55801;BME280;41730;51.960;20.158;2023-04-01T06:19:31;98299.14;;;10.63;83.13
55801;BME280;41730;51.960;20.158;2023-04-01T06:22:31;98301.21;;;10.58;83.19
55801;BME280;41730;51.960;20.158;2023-04-01T06:25:20;98300.76;;;10.69;82.88
55801;BME280;41730;51.960;20.158;2023-04-01T06:28:04;98304.07;;;10.69;82.67
55801;BME280;41730;51.960;20.158;2023-04-01T06:30:42;98305.70;;;10.67;82.76
55801;BME280;41730;51.960;20.158;2023-04-01T06:33:23;98300.52;;;10.58;82.95
55801;BME280;41730;51.960;20.158;2023-04-01T06:36:06;98301.10;;;10.53;83.10
55801;BME280;41730;51.960;20.158;2023-04-01T06:38:54;98301.53;;;10.59;83.15
55801;BME280;41730;51.960;20.158;2023-04-01T06:44:56;98305.63;;;10.71;82.23
55801;BME280;41730;51.960;20.158;2023-04-01T06:47:41;98304.58;;;10.70;82.26
55801;BME280;41730;51.960;20.158;2023-04-01T06:50:23;98306.30;;;10.68;82.39
55801;BME280;41730;51.960;20.158;2023-04-01T06:53:00;98307.94;;;10.61;82.47
55801;BME280;41730;51.960;20.158;2023-04-01T06:55:38;98311.28;;;10.67;82.39
55801;BME280;41730;51.960;20.158;2023-04-01T06:58:20;98313.84;;;10.61;82.43
55801;BME280;41730;51.960;20.158;2023-04-01T07:00:51;98312.20;;;10.60;82.65
55801;BME280;41730;51.960;20.158;2023-04-01T07:03:26;98317.09;;;10.62;82.51
55801;BME280;41730;51.960;20.158;2023-04-01T07:06:01;98315.39;;;10.66;82.28
55801;BME280;41730;51.960;20.158;2023-04-01T07:08:35;98318.98;;;10.59;82.63
55801;BME280;41730;51.960;20.158;2023-04-01T07:11:08;98316.69;;;10.64;82.73
55801;BME280;41730;51.960;20.158;2023-04-01T07:13:43;98316.81;;;10.69;82.48
55801;BME280;41730;51.960;20.158;2023-04-01T07:16:18;98317.52;;;10.80;82.41
55801;BME280;41730;51.960;20.158;2023-04-01T07:18:48;98315.60;;;10.89;82.23
55801;BME280;41730;51.960;20.158;2023-04-01T07:21:28;98313.58;;;11.01;81.95
55801;BME280;41730;51.960;20.158;2023-04-01T07:24:05;98314.40;;;11.09;81.49
55801;BME280;41730;51.960;20.158;2023-04-01T07:26:36;98315.31;;;11.13;81.11
55801;BME280;41730;51.960;20.158;2023-04-01T07:29:11;98317.43;;;11.13;80.94
55801;BME280;41730;51.960;20.158;2023-04-01T07:31:50;98320.05;;;11.01;81.28
55801;BME280;41730;51.960;20.158;2023-04-01T07:34:25;98319.40;;;10.90;82.02
55801;BME280;41730;51.960;20.158;2023-04-01T07:36:59;98315.82;;;11.04;81.75
55801;BME280;41730;51.960;20.158;2023-04-01T07:39:39;98318.84;;;11.08;81.34
55801;BME280;41730;51.960;20.158;2023-04-01T07:42:16;98318.30;;;11.10;81.32
55801;BME280;41730;51.960;20.158;2023-04-01T07:44:57;98317.92;;;11.09;80.93
55801;BME280;41730;51.960;20.158;2023-04-01T07:47:45;98315.30;;;11.03;80.99
55801;BME280;41730;51.960;20.158;2023-04-01T07:50:25;98316.04;;;11.01;81.20
55801;BME280;41730;51.960;20.158;2023-04-01T07:53:07;98318.40;;;10.93;81.15
55801;BME280;41730;51.960;20.158;2023-04-01T07:55:43;98314.52;;;10.97;81.08
55801;BME280;41730;51.960;20.158;2023-04-01T07:58:22;98319.23;;;11.14;80.36
55801;BME280;41730;51.960;20.158;2023-04-01T08:00:59;98324.45;;;11.12;80.24
55801;BME280;41730;51.960;20.158;2023-04-01T08:03:41;98325.64;;;11.09;80.46
55801;BME280;41730;51.960;20.158;2023-04-01T08:06:22;98324.80;;;11.08;80.64
55801;BME280;41730;51.960;20.158;2023-04-01T08:09:01;98328.58;;;11.17;80.25
55801;BME280;41730;51.960;20.158;2023-04-01T08:11:44;98325.21;;;11.26;79.84
55801;BME280;41730;51.960;20.158;2023-04-01T08:14:21;98332.23;;;11.17;80.08
55801;BME280;41730;51.960;20.158;2023-04-01T08:16:59;98332.83;;;11.16;80.21
55801;BME280;41730;51.960;20.158;2023-04-01T08:19:43;98333.40;;;11.16;80.42
55801;BME280;41730;51.960;20.158;2023-04-01T08:22:25;98335.15;;;11.17;80.29
55801;BME280;41730;51.960;20.158;2023-04-01T08:24:57;98339.51;;;11.19;80.08
55801;BME280;41730;51.960;20.158;2023-04-01T08:27:36;98340.84;;;11.24;79.97
55801;BME280;41730;51.960;20.158;2023-04-01T08:30:17;98346.61;;;11.23;80.00
55801;BME280;41730;51.960;20.158;2023-04-01T08:32:49;98343.55;;;11.07;80.66
55801;BME280;41730;51.960;20.158;2023-04-01T08:35:28;98345.17;;;11.14;80.44
55801;BME280;41730;51.960;20.158;2023-04-01T08:38:06;98349.59;;;11.14;80.59
55801;BME280;41730;51.960;20.158;2023-04-01T08:41:01;98345.26;;;11.24;80.44
55801;BME280;41730;51.960;20.158;2023-04-01T08:43:47;98343.22;;;11.23;80.35
55801;BME280;41730;51.960;20.158;2023-04-01T08:46:34;98345.91;;;11.29;80.57
55801;BME280;41730;51.960;20.158;2023-04-01T08:49:21;98339.95;;;11.43;80.76
55801;BME280;41730;51.960;20.158;2023-04-01T08:52:06;98342.65;;;11.56;80.16
55801;BME280;41730;51.960;20.158;2023-04-01T08:55:02;98343.16;;;11.68;80.15
55801;BME280;41730;51.960;20.158;2023-04-01T08:57:42;98339.33;;;11.88;80.27
55801;BME280;41730;51.960;20.158;2023-04-01T09:00:24;98338.00;;;12.10;79.75
55801;BME280;41730;51.960;20.158;2023-04-01T09:06:29;98337.65;;;12.44;79.25
55801;BME280;41730;51.960;20.158;2023-04-01T09:09:29;98334.17;;;12.51;78.78
55801;BME280;41730;51.960;20.158;2023-04-01T09:12:29;98336.25;;;12.59;78.50
55801;BME280;41730;51.960;20.158;2023-04-01T09:15:32;98334.23;;;12.64;77.79
55801;BME280;41730;51.960;20.158;2023-04-01T09:18:24;98335.16;;;12.50;78.04
55801;BME280;41730;51.960;20.158;2023-04-01T09:21:37;98335.41;;;12.50;78.35
55801;BME280;41730;51.960;20.158;2023-04-01T09:24:37;98335.74;;;12.47;77.89
55801;BME280;41730;51.960;20.158;2023-04-01T09:27:18;98335.84;;;12.32;78.03
55801;BME280;41730;51.960;20.158;2023-04-01T09:30:10;98344.27;;;12.12;78.31
55801;BME280;41730;51.960;20.158;2023-04-01T09:33:25;98349.73;;;12.02;78.82
55801;BME280;41730;51.960;20.158;2023-04-01T09:36:07;98354.71;;;11.87;78.78
55801;BME280;41730;51.960;20.158;2023-04-01T09:38:53;98360.30;;;11.68;79.04
55801;BME280;41730;51.960;20.158;2023-04-01T09:41:30;98358.86;;;11.51;79.34
55801;BME280;41730;51.960;20.158;2023-04-01T09:44:03;98364.36;;;11.29;79.50
55801;BME280;41730;51.960;20.158;2023-04-01T09:46:48;98363.01;;;11.18;80.26
55801;BME280;41730;51.960;20.158;2023-04-01T09:52:26;98362.96;;;11.23;79.92
55801;BME280;41730;51.960;20.158;2023-04-01T09:55:12;98358.88;;;11.29;79.61
55801;BME280;41730;51.960;20.158;2023-04-01T10:00:54;98361.95;;;11.13;80.50
55801;BME280;41730;51.960;20.158;2023-04-01T10:06:55;98362.42;;;11.24;80.55
55801;BME280;41730;51.960;20.158;2023-04-01T10:10:02;98364.55;;;11.26;80.30
55801;BME280;41730;51.960;20.158;2023-04-01T10:13:05;98367.33;;;11.24;80.42
55801;BME280;41730;51.960;20.158;2023-04-01T10:16:06;98364.94;;;11.19;80.62
55801;BME280;41730;51.960;20.158;2023-04-01T10:22:24;98373.40;;;11.39;80.23
55801;BME280;41730;51.960;20.158;2023-04-01T10:25:11;98373.83;;;11.50;80.09
55801;BME280;41730;51.960;20.158;2023-04-01T10:37:09;98372.98;;;11.76;80.19
55801;BME280;41730;51.960;20.158;2023-04-01T10:43:24;98368.24;;;11.82;79.89
55801;BME280;41730;51.960;20.158;2023-04-01T10:46:33;98364.18;;;11.85;79.90
55801;BME280;41730;51.960;20.158;2023-04-01T10:49:41;98375.60;;;11.88;80.16
55801;BME280;41730;51.960;20.158;2023-04-01T10:53:05;98378.13;;;11.84;80.06
55801;BME280;41730;51.960;20.158;2023-04-01T10:56:00;98374.38;;;11.78;80.51
55801;BME280;41730;51.960;20.158;2023-04-01T10:59:00;98374.08;;;11.80;80.49
55801;BME280;41730;51.960;20.158;2023-04-01T11:14:37;98387.21;;;12.06;81.01
55801;BME280;41730;51.960;20.158;2023-04-01T11:17:32;98391.10;;;12.04;81.08
55801;BME280;41730;51.960;20.158;2023-04-01T11:20:26;98391.70;;;12.33;80.21
55801;BME280;41730;51.960;20.158;2023-04-01T11:23:23;98390.98;;;12.36;80.45
55801;BME280;41730;51.960;20.158;2023-04-01T11:26:05;98385.76;;;12.48;79.61
55801;BME280;41730;51.960;20.158;2023-04-01T11:31:38;98395.39;;;12.39;80.08
55801;BME280;41730;51.960;20.158;2023-04-01T11:34:20;98396.66;;;12.32;80.39
55801;BME280;41730;51.960;20.158;2023-04-01T11:37:04;98396.63;;;12.41;80.32
55801;BME280;41730;51.960;20.158;2023-04-01T11:39:59;98393.65;;;12.57;80.04
55801;BME280;41730;51.960;20.158;2023-04-01T11:42:38;98392.36;;;12.66;79.80
55801;BME280;41730;51.960;20.158;2023-04-01T11:45:21;98392.02;;;12.62;80.04
55801;BME280;41730;51.960;20.158;2023-04-01T11:48:19;98392.17;;;12.78;79.31
55801;BME280;41730;51.960;20.158;2023-04-01T11:51:10;98388.67;;;12.92;78.73
55801;BME280;41730;51.960;20.158;2023-04-01T11:53:57;98389.98;;;12.93;78.73
55801;BME280;41730;51.960;20.158;2023-04-01T11:56:53;98390.12;;;13.02;78.35
55801;BME280;41730;51.960;20.158;2023-04-01T11:59:44;98393.86;;;13.07;78.25
55801;BME280;41730;51.960;20.158;2023-04-01T12:02:27;98392.67;;;13.09;78.63
55801;BME280;41730;51.960;20.158;2023-04-01T12:05:37;98390.73;;;13.33;78.14
55801;BME280;41730;51.960;20.158;2023-04-01T12:08:18;98392.74;;;13.58;77.74
55801;BME280;41730;51.960;20.158;2023-04-01T12:10:59;98393.04;;;13.65;76.79
55801;BME280;41730;51.960;20.158;2023-04-01T12:13:37;98392.13;;;13.53;76.22
55801;BME280;41730;51.960;20.158;2023-04-01T12:16:32;98397.27;;;13.40;76.46
55801;BME280;41730;51.960;20.158;2023-04-01T12:19:15;98396.20;;;13.29;76.77
55801;BME280;41730;51.960;20.158;2023-04-01T12:21:54;98401.95;;;13.29;76.34
55801;BME280;41730;51.960;20.158;2023-04-01T12:24:46;98402.26;;;13.31;76.23
55801;BME280;41730;51.960;20.158;2023-04-01T12:27:32;98402.62;;;13.35;76.25
55801;BME280;41730;51.960;20.158;2023-04-01T12:30:20;98401.37;;;13.44;76.01
55801;BME280;41730;51.960;20.158;2023-04-01T12:33:04;98401.71;;;13.37;75.89
55801;BME280;41730;51.960;20.158;2023-04-01T12:35:53;98405.66;;;13.44;75.92
55801;BME280;41730;51.960;20.158;2023-04-01T12:38:34;98409.27;;;13.46;75.40
55801;BME280;41730;51.960;20.158;2023-04-01T12:41:15;98410.23;;;13.45;75.42
55801;BME280;41730;51.960;20.158;2023-04-01T12:44:06;98411.59;;;13.39;75.31
55801;BME280;41730;51.960;20.158;2023-04-01T12:46:48;98405.68;;;13.37;75.22
55801;BME280;41730;51.960;20.158;2023-04-01T12:49:38;98406.13;;;13.42;75.13
55801;BME280;41730;51.960;20.158;2023-04-01T12:52:14;98410.02;;;13.45;74.94
55801;BME280;41730;51.960;20.158;2023-04-01T12:55:07;98412.45;;;13.43;74.94
55801;BME280;41730;51.960;20.158;2023-04-01T12:58:17;98412.29;;;13.49;74.89
55801;BME280;41730;51.960;20.158;2023-04-01T13:01:03;98407.46;;;13.55;74.05
55801;BME280;41730;51.960;20.158;2023-04-01T13:03:48;98416.66;;;13.66;72.88
55801;BME280;41730;51.960;20.158;2023-04-01T13:06:30;98414.02;;;13.61;72.87
55801;BME280;41730;51.960;20.158;2023-04-01T13:09:11;98418.77;;;13.66;72.86
55801;BME280;41730;51.960;20.158;2023-04-01T13:11:55;98422.11;;;13.71;72.63
55801;BME280;41730;51.960;20.158;2023-04-01T13:15:08;98427.77;;;13.81;71.69
55801;BME280;41730;51.960;20.158;2023-04-01T13:17:47;98426.95;;;13.71;71.65
55801;BME280;41730;51.960;20.158;2023-04-01T13:20:32;98432.77;;;13.58;71.53
55801;BME280;41730;51.960;20.158;2023-04-01T13:23:14;98437.41;;;13.41;71.73
55801;BME280;41730;51.960;20.158;2023-04-01T13:25:51;98437.22;;;13.30;71.73
55801;BME280;41730;51.960;20.158;2023-04-01T13:28:45;98441.88;;;13.24;71.92
55801;BME280;41730;51.960;20.158;2023-04-01T13:31:26;98446.10;;;13.16;72.09
55801;BME280;41730;51.960;20.158;2023-04-01T13:34:08;98448.08;;;13.16;71.44
55801;BME280;41730;51.960;20.158;2023-04-01T13:36:49;98450.16;;;13.16;70.58
55801;BME280;41730;51.960;20.158;2023-04-01T13:39:29;98452.08;;;13.06;70.71
55801;BME280;41730;51.960;20.158;2023-04-01T13:42:14;98458.23;;;12.97;71.15
55801;BME280;41730;51.960;20.158;2023-04-01T13:44:47;98461.38;;;12.99;70.43
55801;BME280;41730;51.960;20.158;2023-04-01T13:47:27;98465.98;;;12.93;69.90
55801;BME280;41730;51.960;20.158;2023-04-01T13:50:08;98473.52;;;12.84;69.98
55801;BME280;41730;51.960;20.158;2023-04-01T13:52:55;98478.27;;;12.77;70.27
55801;BME280;41730;51.960;20.158;2023-04-01T13:55:54;98477.10;;;12.63;71.09
55801;BME280;41730;51.960;20.158;2023-04-01T13:58:38;98482.44;;;12.58;71.65
55801;BME280;41730;51.960;20.158;2023-04-01T14:01:17;98487.13;;;12.54;71.18
55801;BME280;41730;51.960;20.158;2023-04-01T14:04:03;98490.08;;;12.50;71.31
55801;BME280;41730;51.960;20.158;2023-04-01T14:06:40;98492.55;;;12.47;71.68
55801;BME280;41730;51.960;20.158;2023-04-01T14:09:29;98499.50;;;12.45;71.72
55801;BME280;41730;51.960;20.158;2023-04-01T14:12:09;98496.59;;;12.41;71.89
55801;BME280;41730;51.960;20.158;2023-04-01T14:14:57;98500.71;;;12.28;72.27
55801;BME280;41730;51.960;20.158;2023-04-01T14:17:42;98510.03;;;12.18;72.90
55801;BME280;41730;51.960;20.158;2023-04-01T14:20:29;98512.20;;;12.08;72.56
55801;BME280;41730;51.960;20.158;2023-04-01T14:26:13;98520.52;;;11.86;72.58
55801;BME280;41730;51.960;20.158;2023-04-01T14:28:54;98521.77;;;11.86;72.50
55801;BME280;41730;51.960;20.158;2023-04-01T14:31:40;98522.84;;;11.81;72.68
55801;BME280;41730;51.960;20.158;2023-04-01T14:34:24;98527.41;;;11.78;72.86
55801;BME280;41730;51.960;20.158;2023-04-01T14:37:09;98524.00;;;11.72;72.91
55801;BME280;41730;51.960;20.158;2023-04-01T14:42:53;98535.80;;;11.64;72.99
55801;BME280;41730;51.960;20.158;2023-04-01T14:45:41;98535.70;;;11.55;72.65
55801;BME280;41730;51.960;20.158;2023-04-01T14:48:23;98544.30;;;11.44;73.65